This is the latest recevied weather packets stored in our database for station/object KF6TYS-13. If no packets are shown the sender has not sent any weather packets the latest 10 day(s).
| Time | Temp. | Humidity | Pressure | Rain* | Wind** | Luminosity | Snow |
|---|---|---|---|---|---|---|---|
| 1777795231 | 53.89° C | 100% | 1010.7 hPa | 0 mm | - | - | - |
| 1777793430 | 54.44° C | 100% | 1010.7 hPa | 0 mm | - | - | - |
| 1777791629 | 54.44° C | 100% | 1010.9 hPa | 0 mm | - | - | - |
| 1777789828 | 53.89° C | 100% | 1010.9 hPa | 0 mm | - | - | - |
| 1777788027 | 54.44° C | 100% | 1011 hPa | 0 mm | - | - | - |
| 1777786226 | 54.44° C | 100% | 1011 hPa | 0 mm | - | - | - |
| 1777784425 | 54.44° C | 100% | 1011.2 hPa | 0 mm | - | - | - |
| 1777782625 | 54.44° C | 100% | 1011.1 hPa | 0 mm | - | - | - |
| 1777780823 | 55° C | 100% | 1010.8 hPa | 0 mm | - | - | - |
| 1777779023 | 55° C | 98% | 1010.5 hPa | 0 mm | - | - | - |
| 1777777222 | 55° C | 97% | 1010.1 hPa | 0 mm | - | - | - |
| 1777775420 | 54.44° C | 96% | 1010.4 hPa | 0 mm | - | - | - |
| 1777773620 | 53.89° C | 94% | 1010.3 hPa | 0 mm | - | - | - |
| 1777771818 | 53.89° C | 91% | 1010.4 hPa | 0 mm | - | - | - |
| 1777770019 | 55° C | 89% | 1010.4 hPa | 0 mm | - | - | - |
| 1777768216 | 55.56° C | 86% | 1010.5 hPa | 0 mm | - | - | - |
| 1777766416 | 55° C | 86% | 1010.6 hPa | 0 mm | - | - | - |
| 1777764615 | 55.56° C | 86% | 1010.7 hPa | 0 mm | - | - | - |
| 1777762814 | 55.56° C | 86% | 1010.9 hPa | 0 mm | - | - | - |
| 1777761044 | 55.56° C | 88% | 1011.2 hPa | 0 mm | - | - | - |
| 1777759242 | 55.56° C | 91% | 1011.7 hPa | 0 mm | - | - | - |
| 1777757441 | 55° C | 94% | 1011.9 hPa | 0 mm | - | - | - |
| 1777755642 | 55° C | 97% | 1012.3 hPa | 0 mm | - | - | - |
| 1777753840 | 55° C | 100% | 1012.4 hPa | 0 mm | - | - | - |
| 1777752038 | 54.44° C | 100% | 1012.6 hPa | 0 mm | - | - | - |
* Rain latest hour (hover to see other rain measurements)
** Current wind speed in m/s (hover to see current wind gust speed)